createdAt,value
2018-03-31T00:01:20.237Z,14.20
2018-03-31T00:07:23.900Z,12.33
2018-03-31T00:13:28.185Z,14.17
2018-03-31T00:19:32.077Z,12.83
2018-03-31T00:25:35.735Z,14.50
2018-03-31T00:31:39.494Z,12.27
2018-03-31T00:37:43.199Z,14.30
2018-03-31T00:43:46.917Z,12.90
2018-03-31T00:49:51.501Z,13.53
2018-03-31T00:55:55.530Z,14.57
2018-03-31T01:01:59.543Z,12.10
2018-03-31T01:08:03.496Z,11.63
2018-03-31T01:14:07.207Z,13.80
2018-03-31T01:20:10.853Z,13.03
2018-03-31T01:26:14.491Z,13.87
2018-03-31T01:32:18.937Z,13.17
2018-03-31T01:38:23.581Z,13.07
2018-03-31T01:44:27.381Z,14.00
2018-03-31T01:50:31.036Z,15.43
2018-03-31T01:56:34.770Z,15.77
2018-03-31T02:02:38.418Z,15.60
2018-03-31T02:08:42.065Z,16.30
2018-03-31T02:14:45.719Z,16.37
2018-03-31T02:20:49.507Z,17.00
2018-03-31T02:26:54.422Z,19.77
2018-03-31T02:32:58.509Z,18.23
2018-03-31T02:39:02.562Z,20.30
2018-03-31T02:45:06.221Z,17.97
2018-03-31T02:51:09.924Z,19.70
2018-03-31T02:57:13.750Z,19.80
2018-03-31T03:03:17.562Z,20.13
2018-03-31T03:09:21.372Z,20.30
2018-03-31T03:15:25.291Z,18.43
2018-03-31T03:21:29.386Z,20.73
2018-03-31T03:27:32.718Z,21.30
2018-03-31T03:33:36.805Z,24.37
2018-03-31T03:39:40.848Z,23.10
2018-03-31T03:45:45.333Z,23.60
2018-03-31T03:51:49.488Z,23.77
2018-03-31T03:57:52.836Z,24.57
2018-03-31T04:03:57.050Z,24.20
2018-03-31T04:10:00.508Z,22.47
2018-03-31T04:16:04.091Z,24.37
2018-03-31T04:22:07.399Z,23.00
2018-03-31T04:28:10.821Z,25.07
2018-03-31T04:34:14.239Z,24.87
2018-03-31T04:40:17.736Z,26.90
2018-03-31T04:46:21.798Z,24.13
2018-03-31T04:52:25.771Z,26.13
2018-03-31T04:58:30.064Z,25.30
2018-03-31T05:04:33.389Z,24.83
2018-03-31T05:10:37.411Z,26.27
2018-03-31T05:16:40.732Z,25.23
2018-03-31T05:22:44.137Z,26.70
2018-03-31T05:28:48.331Z,25.83
2018-03-31T05:34:51.660Z,27.00
2018-03-31T05:40:55.329Z,28.90
2018-03-31T05:46:58.713Z,30.30
2018-03-31T05:53:01.998Z,31.63
2018-03-31T05:59:05.422Z,34.90
2018-03-31T06:05:08.738Z,35.73
2018-03-31T06:11:12.781Z,27.10
2018-03-31T06:17:16.070Z,27.03
2018-03-31T06:23:19.360Z,24.40
2018-03-31T06:29:22.723Z,25.80
2018-03-31T06:35:27.107Z,23.00
2018-03-31T06:41:30.547Z,24.90
2018-03-31T06:47:33.909Z,27.40
2018-03-31T06:53:37.207Z,25.60
2018-03-31T06:59:40.523Z,26.47
2018-03-31T07:05:43.874Z,26.10
2018-03-31T07:11:47.155Z,27.43
2018-03-31T07:17:51.201Z,30.53
2018-03-31T07:23:55.061Z,28.60
2018-03-31T07:29:59.297Z,32.60
2018-03-31T07:36:02.718Z,33.43
2018-03-31T07:42:06.040Z,33.13
2018-03-31T07:48:09.367Z,33.17
2018-03-31T07:54:12.798Z,35.00
2018-03-31T08:00:16.089Z,35.00
2018-03-31T08:06:20.155Z,36.27
2018-03-31T08:12:24.201Z,39.50
2018-03-31T08:18:27.676Z,40.83
2018-03-31T08:24:31.823Z,36.57
2018-03-31T08:30:35.318Z,38.60
2018-03-31T08:36:38.577Z,39.50
2018-03-31T08:42:42.029Z,33.73
2018-03-31T08:48:45.353Z,35.97
2018-03-31T08:54:48.675Z,35.80
2018-03-31T09:00:51.956Z,35.17
2018-03-31T09:06:56.150Z,31.30
2018-03-31T09:13:00.317Z,31.03
2018-03-31T09:19:04.350Z,32.50
2018-03-31T09:25:08.467Z,29.20
2018-03-31T09:31:11.765Z,28.10
2018-03-31T09:37:15.429Z,25.70
2018-03-31T09:43:19.580Z,25.47
2018-03-31T09:49:22.899Z,23.57
2018-03-31T09:55:26.834Z,23.63
2018-03-31T10:01:30.348Z,24.40
2018-03-31T10:07:33.735Z,23.37
2018-03-31T10:13:37.822Z,21.40
2018-03-31T10:19:41.109Z,19.57
2018-03-31T10:25:44.477Z,19.57
2018-03-31T10:31:47.840Z,21.03
2018-03-31T10:37:51.942Z,22.40
2018-03-31T10:43:56.309Z,23.43
2018-03-31T10:49:59.717Z,20.73
2018-03-31T10:56:03.099Z,22.60
2018-03-31T11:02:06.567Z,24.37
2018-03-31T11:08:09.840Z,21.07
2018-03-31T11:14:13.201Z,21.00
2018-03-31T11:20:16.650Z,22.93
2018-03-31T11:26:20.059Z,22.67
2018-03-31T11:32:23.475Z,22.33
2018-03-31T11:38:28.102Z,19.00
2018-03-31T11:44:31.420Z,18.80
2018-03-31T11:50:34.807Z,15.67
2018-03-31T11:56:38.261Z,17.30
2018-03-31T12:02:41.737Z,18.83
2018-03-31T12:08:45.023Z,16.90
2018-03-31T12:14:48.336Z,16.50
2018-03-31T12:20:51.778Z,18.57
2018-03-31T12:26:55.529Z,32.90
2018-03-31T12:32:59.887Z,26.93
2018-03-31T12:39:03.205Z,20.50
2018-03-31T12:45:06.785Z,21.37
2018-03-31T12:51:10.133Z,23.60
2018-03-31T12:57:14.432Z,20.63
2018-03-31T13:03:17.719Z,21.90
2018-03-31T13:09:21.251Z,25.33
2018-03-31T13:15:24.681Z,28.47
2018-03-31T13:21:28.378Z,21.17
2018-03-31T13:27:31.688Z,31.67
2018-03-31T13:33:35.091Z,23.60
2018-03-31T13:39:38.708Z,41.60
2018-03-31T13:45:42.149Z,26.77
2018-03-31T13:51:45.483Z,35.60
2018-03-31T13:57:48.999Z,25.00
2018-03-31T14:03:52.513Z,25.30
2018-03-31T14:09:55.854Z,25.17
2018-03-31T14:15:59.214Z,30.00
2018-03-31T14:22:02.679Z,29.87
2018-03-31T14:28:06.121Z,31.30
2018-03-31T14:34:14.244Z,26.43
2018-03-31T14:40:17.607Z,21.80
2018-03-31T14:46:20.953Z,20.40
2018-03-31T14:52:24.515Z,21.50
2018-03-31T14:58:28.856Z,20.37
2018-03-31T15:04:32.180Z,23.63
2018-03-31T15:10:35.511Z,29.30
2018-03-31T15:16:38.827Z,23.87
2018-03-31T15:22:42.213Z,26.10
2018-03-31T15:28:45.539Z,21.90
2018-03-31T15:34:49.017Z,24.77
2018-03-31T15:40:52.329Z,22.17
2018-03-31T15:46:56.729Z,21.13
2018-03-31T15:53:00.862Z,22.50
2018-03-31T15:59:04.147Z,21.80
2018-03-31T16:05:08.247Z,23.10
2018-03-31T16:11:11.548Z,22.57
2018-03-31T16:17:14.931Z,23.60
2018-03-31T16:23:18.325Z,25.93
2018-03-31T16:29:21.703Z,23.90
2018-03-31T16:35:25.311Z,23.63
2018-03-31T16:41:29.684Z,25.17
2018-03-31T16:47:32.980Z,31.57
2018-03-31T16:53:36.305Z,25.93
2018-03-31T16:59:39.776Z,25.97
2018-03-31T17:05:43.124Z,25.30
2018-03-31T17:11:46.609Z,27.60
2018-03-31T17:17:49.986Z,25.67
2018-03-31T17:23:53.327Z,29.40
2018-03-31T17:29:57.192Z,29.47
2018-03-31T17:36:01.074Z,30.50
2018-03-31T17:42:04.417Z,26.77
2018-03-31T17:48:07.771Z,29.37
2018-03-31T17:54:11.146Z,34.00
2018-03-31T18:00:14.558Z,30.97
2018-03-31T18:06:18.085Z,31.53
2018-03-31T18:12:21.485Z,27.17
2018-03-31T18:18:24.869Z,26.20
2018-03-31T18:24:28.591Z,38.63
2018-03-31T18:30:32.860Z,48.87
2018-03-31T18:36:36.165Z,30.70
2018-03-31T18:42:40.245Z,30.60
2018-03-31T18:48:44.988Z,28.97
2018-03-31T18:54:48.326Z,29.77
2018-03-31T19:00:51.730Z,29.10
2018-03-31T19:06:55.082Z,34.13
2018-03-31T19:12:59.053Z,32.90
2018-03-31T19:19:03.922Z,33.10
2018-03-31T19:25:12.723Z,36.73
2018-03-31T19:31:16.115Z,43.57
2018-03-31T19:37:19.458Z,50.00
2018-03-31T19:43:22.793Z,52.47
2018-03-31T19:49:27.746Z,52.67
2018-03-31T19:55:32.260Z,56.60
2018-03-31T20:01:35.557Z,53.20
2018-03-31T20:07:39.026Z,50.80
2018-03-31T20:13:42.448Z,47.70
2018-03-31T20:19:45.929Z,48.97
2018-03-31T20:25:50.046Z,48.00
2018-03-31T20:31:53.414Z,46.77
2018-03-31T20:37:57.057Z,46.50
2018-03-31T20:44:00.592Z,43.67
2018-03-31T20:50:03.948Z,43.67
2018-03-31T20:56:07.299Z,40.10
2018-03-31T21:02:10.691Z,36.27
2018-03-31T21:08:14.120Z,28.00
2018-03-31T21:14:17.517Z,32.37
2018-03-31T21:20:20.938Z,31.20
2018-03-31T21:26:24.381Z,39.27
2018-03-31T21:32:28.164Z,45.70
2018-03-31T21:38:31.739Z,44.40
2018-03-31T21:44:35.323Z,30.90
2018-03-31T21:50:38.630Z,37.30
2018-03-31T21:56:41.979Z,41.57
2018-03-31T22:02:45.275Z,39.50
2018-03-31T22:08:48.617Z,44.40
2018-03-31T22:14:57.339Z,52.77
2018-03-31T22:21:00.623Z,50.00
2018-03-31T22:27:03.976Z,44.70
2018-03-31T22:33:07.307Z,43.67
2018-03-31T22:39:10.803Z,44.83
2018-03-31T22:45:14.133Z,43.37
2018-03-31T22:51:18.197Z,36.80
2018-03-31T22:57:21.575Z,37.30
2018-03-31T23:03:25.073Z,37.90
2018-03-31T23:09:28.888Z,39.73
2018-03-31T23:15:33.436Z,39.50
2018-03-31T23:21:37.084Z,37.27
2018-03-31T23:27:41.556Z,45.33
2018-03-31T23:33:45.303Z,48.90
2018-03-31T23:39:48.947Z,47.17
2018-03-31T23:45:52.382Z,49.00
2018-03-31T23:51:56.281Z,46.73
2018-03-31T23:58:00.686Z,45.97
